North Salt Lake, Utah
Current Conditions -  °F | °C
As of 3:53 PM on Wednesday 22 Oct 2014 (Local Time) from KSLC Reporting Station
Broken Clouds Broken Clouds  
Wind Chill: 62°   Ceiling: 23000
Heat Index: 62°   Visibility: 10mi
Dew Point: 32°   Wind: 7mph
Humidity: 32%   Direction: 340°NNW
Pressure: 30.16"   Gusts: NA
Location:  40.84°N, 111.91°W
Report Text: KSLC 222153Z 34006KT 10SM FEW085 SCT140 BKN230 17/00 A3016 RMK AO2 SLP192 T01670000
Loading
Personal Weather Stations






























Interactive Weather Map
Tropical Storm Tracking
New forecast layout! Learn more

10-Day Weather Forecast

Advertisements
Track Severe Weather on mobile